Yeso, New Mexico
Current Conditions -  °F | °C
As of 5:56 PM on Friday 28 Nov 2014 (Local Time) from K4MR Reporting Station
Clear Clear  
Wind Chill: 58°   Ceiling: Unl
Heat Index: 58°   Visibility: 10mi
Dew Point: 18°   Wind: 14mph
Humidity: 21%   Direction: 210°SSW
Pressure: 30.01"   Gusts: NA
Location:  34.44°N, 104.61°W
Report Text: K4MR 290056Z AUTO 21012KT 10SM CLR 15/M08 A3001 RMK AO2 SLP137 T01461079
Loading
Personal Weather Stations






























Interactive Weather Map New forecast layout! Learn more

10-Day Weather Forecast

Advertisements
Track Severe Weather on mobile